createdAt,value
2023-03-15T00:02:12.256Z,5.06
2023-03-15T00:04:41.296Z,5.06
2023-03-15T00:07:09.161Z,5.05
2023-03-15T00:09:36.681Z,5.07
2023-03-15T00:12:05.244Z,5.08
2023-03-15T00:14:32.999Z,5.07
2023-03-15T00:17:00.548Z,5.06
2023-03-15T00:19:28.211Z,5.05
2023-03-15T00:21:55.908Z,5.01
2023-03-15T00:24:27.340Z,4.99
2023-03-15T00:27:05.439Z,5.00
2023-03-15T00:29:33.366Z,5.00
2023-03-15T00:32:01.162Z,4.98
2023-03-15T00:34:28.772Z,4.98
2023-03-15T00:36:56.740Z,4.97
2023-03-15T00:39:25.333Z,4.96
2023-03-15T00:41:55.302Z,4.97
2023-03-15T00:44:24.331Z,4.94
2023-03-15T00:46:52.183Z,4.92
2023-03-15T00:49:20.721Z,4.90
2023-03-15T00:51:48.415Z,4.88
2023-03-15T00:54:16.375Z,4.84
2023-03-15T00:56:44.338Z,4.82
2023-03-15T00:59:12.361Z,4.79
2023-03-15T01:01:42.073Z,4.78
2023-03-15T01:04:13.704Z,4.77
2023-03-15T01:06:41.997Z,4.73
2023-03-15T01:09:09.830Z,4.69
2023-03-15T01:11:37.977Z,4.67
2023-03-15T01:14:07.739Z,4.54
2023-03-15T01:16:36.065Z,4.63
2023-03-15T01:19:03.785Z,4.61
2023-03-15T01:21:34.458Z,4.60
2023-03-15T01:24:02.276Z,4.57
2023-03-15T01:26:30.208Z,4.57
2023-03-15T01:28:58.567Z,4.55
2023-03-15T01:31:30.277Z,4.52
2023-03-15T01:33:58.995Z,4.51
2023-03-15T01:36:28.608Z,4.48
2023-03-15T01:38:57.141Z,4.47
2023-03-15T01:41:26.876Z,4.45
2023-03-15T01:43:54.857Z,4.43
2023-03-15T01:46:34.703Z,4.42
2023-03-15T01:49:26.982Z,4.40
2023-03-15T01:52:12.792Z,4.35
2023-03-15T01:55:05.845Z,4.33
2023-03-15T01:57:51.013Z,4.31
2023-03-15T02:00:20.976Z,4.29
2023-03-15T02:02:58.292Z,4.27
2023-03-15T02:05:32.197Z,4.27
2023-03-15T02:08:01.767Z,4.24
2023-03-15T02:10:37.881Z,4.22
2023-03-15T02:13:06.880Z,4.20
2023-03-15T02:15:34.839Z,4.16
2023-03-15T02:18:04.588Z,4.14
2023-03-15T02:21:03.731Z,4.10
2023-03-15T02:23:33.714Z,4.06
2023-03-15T02:26:25.124Z,3.99
2023-03-15T02:28:53.537Z,3.94
2023-03-15T02:31:22.131Z,3.86
2023-03-15T02:33:52.677Z,3.81
2023-03-15T02:36:26.796Z,3.76
2023-03-15T02:38:56.124Z,3.71
2023-03-15T02:41:37.334Z,3.65
2023-03-15T02:44:10.235Z,3.61
2023-03-15T02:46:38.480Z,3.54
2023-03-15T02:49:08.478Z,3.49
2023-03-15T02:51:36.547Z,3.42
2023-03-15T02:54:04.515Z,3.38
2023-03-15T02:56:32.985Z,3.34
2023-03-15T02:59:00.994Z,3.32
2023-03-15T03:01:29.024Z,3.25
2023-03-15T03:03:57.699Z,3.21
2023-03-15T03:06:25.512Z,3.18
2023-03-15T03:08:53.936Z,3.16
2023-03-15T03:11:21.944Z,3.13
2023-03-15T03:13:50.791Z,3.12
2023-03-15T03:16:21.828Z,3.11
2023-03-15T03:18:49.718Z,3.11
2023-03-15T03:21:17.473Z,3.09
2023-03-15T03:23:45.780Z,3.08
2023-03-15T03:26:17.698Z,3.07
2023-03-15T03:28:49.113Z,3.06
2023-03-15T03:31:21.599Z,3.06
2023-03-15T03:33:50.212Z,3.05
2023-03-15T03:36:18.322Z,3.04
2023-03-15T03:38:46.893Z,3.03
2023-03-15T03:41:15.218Z,3.02
2023-03-15T03:43:43.461Z,3.01
2023-03-15T03:46:11.842Z,3.02
2023-03-15T03:48:41.601Z,3.02
2023-03-15T03:51:09.569Z,3.02
2023-03-15T03:53:37.601Z,3.01
2023-03-15T03:56:06.533Z,3.00
2023-03-15T03:58:34.844Z,3.00
2023-03-15T04:01:13.492Z,3.01
2023-03-15T04:03:42.108Z,3.03
2023-03-15T04:06:11.570Z,3.02
2023-03-15T04:08:41.989Z,3.03
2023-03-15T04:11:11.507Z,3.02
2023-03-15T04:13:40.864Z,3.01
2023-03-15T04:16:08.830Z,3.02
2023-03-15T04:18:39.785Z,3.02
2023-03-15T04:21:10.081Z,3.02
2023-03-15T04:23:38.333Z,3.02
2023-03-15T04:26:26.065Z,3.01
2023-03-15T04:29:22.786Z,3.02
2023-03-15T04:31:56.876Z,3.05
2023-03-15T04:34:30.730Z,3.06
2023-03-15T04:37:06.210Z,3.10
2023-03-15T04:39:35.797Z,3.13
2023-03-15T04:42:22.392Z,3.16
2023-03-15T04:44:53.540Z,3.17
2023-03-15T04:47:40.764Z,3.18
2023-03-15T04:50:11.240Z,3.20
2023-03-15T04:52:43.539Z,3.23
2023-03-15T04:55:13.597Z,3.21
2023-03-15T04:58:01.570Z,3.30
2023-03-15T05:00:47.881Z,3.33
2023-03-15T05:03:29.812Z,3.37
2023-03-15T05:06:04.242Z,3.42
2023-03-15T05:08:37.028Z,3.49
2023-03-15T05:11:15.806Z,3.59
2023-03-15T05:13:48.037Z,3.97
2023-03-15T05:16:23.669Z,4.26
2023-03-15T05:18:51.626Z,4.36
2023-03-15T05:21:24.066Z,4.36
2023-03-15T05:23:56.867Z,4.36
2023-03-15T05:26:45.144Z,4.36
2023-03-15T05:29:15.807Z,4.36
2023-03-15T05:31:45.603Z,4.37
2023-03-15T05:34:27.612Z,4.39
2023-03-15T05:37:00.128Z,4.42
2023-03-15T05:39:31.588Z,4.43
2023-03-15T05:42:01.598Z,4.47
2023-03-15T05:44:40.427Z,4.50
2023-03-15T05:47:23.671Z,4.53
2023-03-15T05:50:11.714Z,4.57
2023-03-15T05:52:41.003Z,4.61
2023-03-15T05:55:19.538Z,4.65
2023-03-15T05:57:55.977Z,4.71
2023-03-15T06:00:23.960Z,4.78
2023-03-15T06:02:53.780Z,4.83
2023-03-15T06:05:29.835Z,4.87
2023-03-15T06:07:58.623Z,4.94
2023-03-15T06:10:26.741Z,5.02
2023-03-15T06:12:54.952Z,5.12
2023-03-15T06:15:23.956Z,5.23
2023-03-15T06:17:52.285Z,5.33
2023-03-15T06:20:20.240Z,5.43
2023-03-15T06:22:48.844Z,5.49
2023-03-15T06:25:18.705Z,5.56
2023-03-15T06:27:46.607Z,5.62
2023-03-15T06:30:17.024Z,5.67
2023-03-15T06:32:45.254Z,5.77
2023-03-15T06:35:13.170Z,5.86
2023-03-15T06:37:41.712Z,5.93
2023-03-15T06:40:11.937Z,6.03
2023-03-15T06:42:45.266Z,6.12
2023-03-15T06:45:17.949Z,6.23
2023-03-15T06:47:47.283Z,6.32
2023-03-15T06:50:16.437Z,6.45
2023-03-15T06:52:44.663Z,6.55
2023-03-15T06:55:14.341Z,6.67
2023-03-15T06:57:44.637Z,6.79
2023-03-15T07:00:13.722Z,6.89
2023-03-15T07:02:41.705Z,7.01
2023-03-15T07:05:10.772Z,7.10
2023-03-15T07:07:38.363Z,7.17
2023-03-15T07:10:08.948Z,7.22
2023-03-15T07:12:36.850Z,7.26
2023-03-15T07:15:05.394Z,7.31
2023-03-15T07:17:33.559Z,7.37
2023-03-15T07:20:01.296Z,7.48
2023-03-15T07:22:29.071Z,7.57
2023-03-15T07:24:56.522Z,7.64
2023-03-15T07:27:24.220Z,7.72
2023-03-15T07:29:51.982Z,7.77
2023-03-15T07:32:19.675Z,7.84
2023-03-15T07:34:47.452Z,7.89
2023-03-15T07:37:16.866Z,7.98
2023-03-15T07:39:44.836Z,8.06
2023-03-15T07:42:13.817Z,8.15
2023-03-15T07:44:42.855Z,8.21
2023-03-15T07:47:11.044Z,8.29
2023-03-15T07:49:38.784Z,8.41
2023-03-15T07:52:07.337Z,8.55
2023-03-15T07:54:34.978Z,8.68
2023-03-15T07:57:02.934Z,8.79
2023-03-15T07:59:30.989Z,8.92
2023-03-15T08:02:01.489Z,9.05
2023-03-15T08:04:28.405Z,9.20
2023-03-15T08:06:56.664Z,9.29
2023-03-15T08:09:24.488Z,9.40
2023-03-15T08:11:52.360Z,9.51
2023-03-15T08:14:20.261Z,9.64
2023-03-15T08:16:48.133Z,9.77
2023-03-15T08:19:15.846Z,9.89
2023-03-15T08:21:44.904Z,10.03
2023-03-15T08:24:13.246Z,10.12
2023-03-15T08:26:42.750Z,10.23
2023-03-15T08:29:16.581Z,10.35
2023-03-15T08:32:03.085Z,10.47
2023-03-15T08:34:33.513Z,10.64
2023-03-15T08:37:01.229Z,10.79
2023-03-15T08:39:28.888Z,10.93
2023-03-15T08:41:56.635Z,11.05
2023-03-15T08:44:24.531Z,11.16
2023-03-15T08:46:52.275Z,11.28
2023-03-15T08:49:20.097Z,11.41
2023-03-15T08:51:47.637Z,11.52
2023-03-15T08:54:15.173Z,11.59
2023-03-15T08:56:43.189Z,11.62
2023-03-15T08:59:12.777Z,11.67
2023-03-15T09:01:40.778Z,11.78
2023-03-15T09:04:08.678Z,11.88
2023-03-15T09:06:36.696Z,11.95
2023-03-15T09:09:04.598Z,11.92
2023-03-15T09:11:32.192Z,11.88
2023-03-15T09:13:59.868Z,11.88
2023-03-15T09:16:27.817Z,11.87
2023-03-15T09:18:55.386Z,11.89
2023-03-15T09:21:24.663Z,11.99
2023-03-15T09:23:52.390Z,12.10
2023-03-15T09:26:20.389Z,12.18
2023-03-15T09:28:49.709Z,12.26
2023-03-15T09:31:17.727Z,12.29
2023-03-15T09:33:49.347Z,12.33
2023-03-15T09:36:17.154Z,12.40
2023-03-15T09:38:46.881Z,12.41
2023-03-15T09:41:40.232Z,12.49
2023-03-15T09:44:25.807Z,12.55
2023-03-15T09:47:34.769Z,12.59
2023-03-15T09:50:10.949Z,12.59
2023-03-15T09:52:49.034Z,12.64
2023-03-15T09:55:23.812Z,12.70
2023-03-15T09:57:58.665Z,12.75
2023-03-15T10:00:40.380Z,12.84
2023-03-15T10:03:28.839Z,12.90
2023-03-15T10:06:02.988Z,12.98
2023-03-15T10:08:32.524Z,13.07
2023-03-15T10:11:37.294Z,13.16
2023-03-15T10:14:54.541Z,13.21
2023-03-15T10:18:14.777Z,13.27
2023-03-15T10:20:54.087Z,13.32
2023-03-15T10:23:47.298Z,13.36
2023-03-15T10:26:19.489Z,13.38
2023-03-15T10:28:49.461Z,13.41
2023-03-15T10:31:44.092Z,13.44
2023-03-15T10:34:04.350Z,13.48
2023-03-15T10:36:32.795Z,13.53
2023-03-15T10:39:00.599Z,13.59
2023-03-15T10:41:47.700Z,13.63
2023-03-15T10:44:25.594Z,13.65
2023-03-15T10:47:21.328Z,13.71
2023-03-15T10:49:40.640Z,13.75
2023-03-15T10:52:35.010Z,13.79
2023-03-15T10:55:18.853Z,13.84
2023-03-15T10:57:59.568Z,13.85
2023-03-15T11:00:33.519Z,13.85
2023-03-15T11:03:19.032Z,13.84
2023-03-15T11:05:51.003Z,13.83
2023-03-15T11:08:23.474Z,13.85
2023-03-15T11:10:59.703Z,13.86
2023-03-15T11:13:31.019Z,13.85
2023-03-15T11:16:03.915Z,13.88
2023-03-15T11:18:46.186Z,13.91
2023-03-15T11:21:17.287Z,13.92
2023-03-15T11:23:49.452Z,13.91
2023-03-15T11:26:33.601Z,13.92
2023-03-15T11:29:25.602Z,13.87
2023-03-15T11:31:55.194Z,13.82
2023-03-15T11:34:40.226Z,13.77
2023-03-15T11:37:19.780Z,13.71
2023-03-15T11:40:29.672Z,13.69
2023-03-15T11:43:08.345Z,13.62
2023-03-15T11:46:06.186Z,13.53
2023-03-15T11:49:15.901Z,13.48
2023-03-15T11:51:44.008Z,13.41
2023-03-15T11:54:17.851Z,13.38
2023-03-15T11:56:53.530Z,13.36
2023-03-15T11:59:33.860Z,13.34
2023-03-15T12:02:16.240Z,13.32
2023-03-15T12:04:50.840Z,13.31
2023-03-15T12:07:24.006Z,13.30
2023-03-15T12:09:55.772Z,13.31
2023-03-15T12:12:31.933Z,13.31
2023-03-15T12:15:07.912Z,13.30
2023-03-15T12:17:52.527Z,13.32
2023-03-15T12:20:40.343Z,13.37
2023-03-15T12:23:13.810Z,13.45
2023-03-15T12:25:55.264Z,13.56
2023-03-15T12:28:41.126Z,13.70
2023-03-15T12:31:15.562Z,13.85
2023-03-15T12:33:54.520Z,13.95
2023-03-15T12:36:40.623Z,14.04
2023-03-15T12:39:20.226Z,14.08
2023-03-15T12:41:50.480Z,14.14
2023-03-15T12:44:23.614Z,14.17
2023-03-15T12:46:54.804Z,14.25
2023-03-15T12:49:28.160Z,14.26
2023-03-15T12:52:13.150Z,14.32
2023-03-15T12:54:48.810Z,14.38
2023-03-15T12:57:29.926Z,14.43
2023-03-15T13:00:14.679Z,14.44
2023-03-15T13:02:53.772Z,14.50
2023-03-15T13:05:35.771Z,14.53
2023-03-15T13:08:23.493Z,14.62
2023-03-15T13:11:05.973Z,14.67
2023-03-15T13:14:03.924Z,14.66
2023-03-15T13:16:58.317Z,14.62
2023-03-15T13:19:33.742Z,14.55
2023-03-15T13:22:32.092Z,14.51
2023-03-15T13:25:12.591Z,14.51
2023-03-15T13:27:56.837Z,14.47
2023-03-15T13:30:42.828Z,14.41
2023-03-15T13:33:22.198Z,14.36
2023-03-15T13:36:06.258Z,14.35
2023-03-15T13:38:44.258Z,14.32
2023-03-15T13:41:26.032Z,14.31
2023-03-15T13:43:57.612Z,14.28
2023-03-15T13:46:29.155Z,14.26
2023-03-15T13:48:57.287Z,14.27
2023-03-15T13:51:31.974Z,14.25
2023-03-15T13:54:17.043Z,14.22
2023-03-15T13:56:59.258Z,14.18
2023-03-15T13:59:53.990Z,14.18
2023-03-15T14:02:47.236Z,14.17
2023-03-15T14:05:19.373Z,14.17
2023-03-15T14:07:50.684Z,14.15
2023-03-15T14:10:37.577Z,14.13
2023-03-15T14:13:37.809Z,14.09
2023-03-15T14:16:10.298Z,14.09
2023-03-15T14:18:41.022Z,14.06
2023-03-15T14:21:20.001Z,14.03
2023-03-15T14:23:49.365Z,14.00
2023-03-15T14:26:21.587Z,13.95
2023-03-15T14:28:57.724Z,13.90
2023-03-15T14:31:27.720Z,13.82
2023-03-15T14:34:00.711Z,13.77
2023-03-15T14:36:42.516Z,13.70
2023-03-15T14:39:33.049Z,13.64
2023-03-15T14:42:00.668Z,13.58
2023-03-15T14:44:28.339Z,13.51
2023-03-15T14:46:56.369Z,13.47
2023-03-15T14:49:26.938Z,13.43
2023-03-15T14:52:04.656Z,13.37
2023-03-15T14:54:33.401Z,13.32
2023-03-15T14:57:01.241Z,13.27
2023-03-15T14:59:28.965Z,13.24
2023-03-15T15:02:00.575Z,13.20
2023-03-15T15:04:33.122Z,13.17
2023-03-15T15:07:02.966Z,13.11
2023-03-15T15:09:31.028Z,13.08
2023-03-15T15:11:58.827Z,13.05
2023-03-15T15:14:26.501Z,13.01
2023-03-15T15:16:54.204Z,12.98
2023-03-15T15:19:21.851Z,12.93
2023-03-15T15:21:51.172Z,12.85
2023-03-15T15:24:21.940Z,12.82
2023-03-15T15:26:49.724Z,12.76
2023-03-15T15:29:17.219Z,12.73
2023-03-15T15:31:45.499Z,12.68
2023-03-15T15:34:13.299Z,12.64
2023-03-15T15:36:43.466Z,12.60
2023-03-15T15:39:21.757Z,12.56
2023-03-15T15:41:50.125Z,12.52
2023-03-15T15:44:21.534Z,12.49
2023-03-15T15:46:49.786Z,12.45
2023-03-15T15:49:19.001Z,12.38
2023-03-15T15:51:51.634Z,12.32
2023-03-15T15:54:26.135Z,12.28
2023-03-15T15:56:56.979Z,12.23
2023-03-15T15:59:25.197Z,12.16
2023-03-15T16:02:01.148Z,12.12
2023-03-15T16:04:25.882Z,12.10
2023-03-15T16:07:01.108Z,12.07
2023-03-15T16:09:34.476Z,12.03
2023-03-15T16:12:04.128Z,11.99
2023-03-15T16:14:31.919Z,11.92
2023-03-15T16:17:01.766Z,11.87
2023-03-15T16:19:29.587Z,11.81
2023-03-15T16:21:57.704Z,11.75
2023-03-15T16:24:29.777Z,11.68
2023-03-15T16:27:01.679Z,11.64
2023-03-15T16:29:48.093Z,11.59
2023-03-15T16:32:37.186Z,11.54
2023-03-15T16:34:56.657Z,11.50
2023-03-15T16:37:31.454Z,11.44
2023-03-15T16:40:01.769Z,11.41
2023-03-15T16:42:30.168Z,11.37
2023-03-15T16:44:58.825Z,11.32
2023-03-15T16:47:26.817Z,11.27
2023-03-15T16:49:55.376Z,11.23
2023-03-15T16:52:23.490Z,11.18
2023-03-15T16:54:51.765Z,11.15
2023-03-15T16:57:22.633Z,11.12
2023-03-15T16:59:51.399Z,11.09
2023-03-15T17:02:23.329Z,11.05
2023-03-15T17:04:52.266Z,11.03
2023-03-15T17:07:28.391Z,11.01
2023-03-15T17:09:59.326Z,10.97
2023-03-15T17:12:28.995Z,10.90
2023-03-15T17:14:58.919Z,10.86
2023-03-15T17:17:36.375Z,10.80
2023-03-15T17:20:11.939Z,10.74
2023-03-15T17:22:43.858Z,10.67
2023-03-15T17:25:12.140Z,10.61
2023-03-15T17:27:42.084Z,10.57
2023-03-15T17:30:27.241Z,10.51
2023-03-15T17:32:55.686Z,10.47
2023-03-15T17:35:37.251Z,10.42
2023-03-15T17:38:10.515Z,10.33
2023-03-15T17:40:38.406Z,10.22
2023-03-15T17:43:06.775Z,10.15
2023-03-15T17:45:37.106Z,10.11
2023-03-15T17:48:05.135Z,10.08
2023-03-15T17:50:34.648Z,10.07
2023-03-15T17:53:07.672Z,10.05
2023-03-15T17:55:35.838Z,10.04
2023-03-15T17:58:14.711Z,10.01
2023-03-15T18:00:43.074Z,9.97
2023-03-15T18:03:14.234Z,9.88
2023-03-15T18:05:42.824Z,9.83
2023-03-15T18:08:17.881Z,9.77
2023-03-15T18:10:47.285Z,9.70
2023-03-15T18:13:19.295Z,9.64
2023-03-15T18:15:51.266Z,9.54
2023-03-15T18:18:20.430Z,9.48
2023-03-15T18:20:49.048Z,9.42
2023-03-15T18:23:19.690Z,9.38
2023-03-15T18:25:47.845Z,9.34
2023-03-15T18:28:15.853Z,9.29
2023-03-15T18:30:45.796Z,9.24
2023-03-15T18:33:15.541Z,9.20
2023-03-15T18:35:45.746Z,9.15
2023-03-15T18:38:15.433Z,9.12
2023-03-15T18:40:42.961Z,9.05
2023-03-15T18:43:13.968Z,8.97
2023-03-15T18:45:42.709Z,8.92
2023-03-15T18:48:11.026Z,8.86
2023-03-15T18:50:38.765Z,8.79
2023-03-15T18:53:06.753Z,8.72
2023-03-15T18:55:35.153Z,8.64
2023-03-15T18:58:04.225Z,8.56
2023-03-15T19:00:35.067Z,8.51
2023-03-15T19:03:05.257Z,8.47
2023-03-15T19:05:37.904Z,8.40
2023-03-15T19:08:05.953Z,8.32
2023-03-15T19:10:36.144Z,8.25
2023-03-15T19:13:07.640Z,8.19
2023-03-15T19:15:35.549Z,8.16
2023-03-15T19:18:05.352Z,8.10
2023-03-15T19:20:35.952Z,8.07
2023-03-15T19:23:05.658Z,8.06
2023-03-15T19:25:33.683Z,8.03
2023-03-15T19:28:01.638Z,7.99
2023-03-15T19:30:30.483Z,7.98
2023-03-15T19:33:00.952Z,7.94
2023-03-15T19:35:28.963Z,7.93
2023-03-15T19:38:00.303Z,7.88
2023-03-15T19:40:27.919Z,7.85
2023-03-15T19:42:55.449Z,7.83
2023-03-15T19:45:23.222Z,7.82
2023-03-15T19:47:51.139Z,7.81
2023-03-15T19:50:19.869Z,7.80
2023-03-15T19:52:47.863Z,7.80
2023-03-15T19:55:28.478Z,7.80
2023-03-15T19:57:58.014Z,7.77
2023-03-15T20:00:25.838Z,7.74
2023-03-15T20:02:54.977Z,7.73
2023-03-15T20:05:29.697Z,7.72
2023-03-15T20:08:02.443Z,7.72
2023-03-15T20:10:30.881Z,7.75
2023-03-15T20:12:58.851Z,7.78
2023-03-15T20:15:29.325Z,7.82
2023-03-15T20:17:56.802Z,7.87
2023-03-15T20:20:24.742Z,7.90
2023-03-15T20:22:52.714Z,7.95
2023-03-15T20:25:20.912Z,7.98
2023-03-15T20:27:51.454Z,7.97
2023-03-15T20:30:21.611Z,8.04
2023-03-15T20:32:49.830Z,8.07
2023-03-15T20:35:17.981Z,8.09
2023-03-15T20:37:46.059Z,8.12
2023-03-15T20:40:15.966Z,8.16
2023-03-15T20:42:45.488Z,8.22
2023-03-15T20:45:19.434Z,8.26
2023-03-15T20:47:47.347Z,8.30
2023-03-15T20:50:17.802Z,8.33
2023-03-15T20:52:45.697Z,8.36
2023-03-15T20:55:14.730Z,8.36
2023-03-15T20:57:45.536Z,8.38
2023-03-15T21:00:17.029Z,8.39
2023-03-15T21:02:46.538Z,8.39
2023-03-15T21:05:15.715Z,8.36
2023-03-15T21:07:43.894Z,8.36
2023-03-15T21:10:15.199Z,8.36
2023-03-15T21:12:44.311Z,8.36
2023-03-15T21:15:14.328Z,8.34
2023-03-15T21:17:42.098Z,8.28
2023-03-15T21:20:12.659Z,8.19
2023-03-15T21:22:41.304Z,8.08
2023-03-15T21:25:09.901Z,7.97
2023-03-15T21:27:37.956Z,7.88
2023-03-15T21:30:07.978Z,7.84
2023-03-15T21:32:35.513Z,7.79
2023-03-15T21:35:04.582Z,7.75
2023-03-15T21:37:33.496Z,7.71
2023-03-15T21:40:04.851Z,7.69
2023-03-15T21:42:34.144Z,7.67
2023-03-15T21:45:02.182Z,7.63
2023-03-15T21:47:30.742Z,7.63
2023-03-15T21:49:58.487Z,7.61
2023-03-15T21:52:27.690Z,7.59
2023-03-15T21:54:55.451Z,7.57
2023-03-15T21:57:23.744Z,7.54
2023-03-15T21:59:51.508Z,7.52
2023-03-15T22:02:19.204Z,7.51
2023-03-15T22:04:47.054Z,7.49
2023-03-15T22:07:14.937Z,7.46
2023-03-15T22:09:42.819Z,7.35
2023-03-15T22:12:10.775Z,7.27
2023-03-15T22:14:39.647Z,7.20
2023-03-15T22:17:08.264Z,7.15
2023-03-15T22:19:36.495Z,7.13
2023-03-15T22:22:04.867Z,7.10
2023-03-15T22:24:33.428Z,7.08
2023-03-15T22:27:01.612Z,7.05
2023-03-15T22:29:29.785Z,7.05
2023-03-15T22:31:57.834Z,7.06
2023-03-15T22:34:26.891Z,7.03
2023-03-15T22:36:55.653Z,7.04
2023-03-15T22:39:23.534Z,7.02
2023-03-15T22:41:51.155Z,6.99
2023-03-15T22:44:19.307Z,6.93
2023-03-15T22:46:47.434Z,6.93
2023-03-15T22:49:15.285Z,6.89
2023-03-15T22:51:43.255Z,6.80
2023-03-15T22:54:10.810Z,6.73
2023-03-15T22:56:40.897Z,6.67
2023-03-15T22:59:08.303Z,6.65
2023-03-15T23:01:36.920Z,6.64
2023-03-15T23:04:04.746Z,6.57
2023-03-15T23:06:32.903Z,6.46
2023-03-15T23:09:01.295Z,6.41
2023-03-15T23:11:29.103Z,6.39
2023-03-15T23:13:56.841Z,6.38
2023-03-15T23:16:24.737Z,6.37
2023-03-15T23:18:52.572Z,6.36
2023-03-15T23:21:20.797Z,6.35
2023-03-15T23:23:48.543Z,6.32
2023-03-15T23:26:18.426Z,6.24
2023-03-15T23:28:46.674Z,6.07
2023-03-15T23:31:14.480Z,5.93
2023-03-15T23:33:44.154Z,5.84
2023-03-15T23:36:11.998Z,5.75
2023-03-15T23:38:40.338Z,5.72
2023-03-15T23:41:08.022Z,5.73
2023-03-15T23:43:35.684Z,5.74
2023-03-15T23:46:05.080Z,5.73
2023-03-15T23:48:35.604Z,5.76
2023-03-15T23:51:04.327Z,5.77
2023-03-15T23:53:32.341Z,5.74
2023-03-15T23:56:00.897Z,5.72
2023-03-15T23:58:28.817Z,5.68
